F/V Carmalia — FMFK — position and weather

sailwx.info

Track history (hours):
 
Tides and Currents Weather Stations Pressure Air Temp Water Temp Dewpoint Dewpoint Depression Visibility Wind Speed Wind Dir Waves Ship Positions

F/V Carmalia

Last reported at 2016-Feb-06 16:33 UTC. Time now 2016-Feb-07 17:23 UTC.
Position N 47°44' W 003°22'.

Length 17 m.

Type: Fishing. MMSI: 228222900.

Date/timePositionNaut miles runAvg speedWind from/ knotsBaromVisibWave heightAir tempDewpointWater temp
2016-Feb-06 16:33N 47°44' W 003°22'0 0.0
2016-Feb-06 15:33N 47°44' W 003°22'0 0.0
2016-Feb-06 14:33N 47°44' W 003°22'3 2.8
2016-Feb-06 13:33N 47°41' W 003°24'9 8.5
2016-Feb-06 12:33N 47°40' W 003°36'5 0.1
2016-Feb-04 17:31N 47°39' W 003°43'9 9.3
2016-Feb-04 16:33N 47°40' W 003°30'7 6.5
2016-Feb-04 15:33N 47°44' W 003°22'0 0.0
2016-Feb-04 14:33N 47°44' W 003°22'0 0.0
2016-Feb-04 13:33N 47°44' W 003°22'3 2.6
2016-Feb-04 12:33N 47°41' W 003°23'7 7.0
2016-Feb-04 11:33N 47°40' W 003°33'7 6.7
2016-Feb-04 10:33N 47°39' W 003°43'  
2016-Feb-01 10:27N 47°43' W 003°48'7 7.8
2016-Feb-01 09:33N 47°42' W 003°37'8 7.7
2016-Feb-01 08:33N 47°41' W 003°26'4 3.9
2016-Feb-01 07:33N 47°44' W 003°22'  
2016-Jan-28 14:08N 47°44' W 003°22'0 0.0
2016-Jan-28 13:34N 47°44' W 003°22'5 4.6
2016-Jan-28 12:33N 47°41' W 003°27'9 9.3
2016-Jan-28 11:33N 47°40' W 003°41'1 0.6
2016-Jan-28 10:33N 47°40' W 003°42'10 9.9
2016-Jan-28 09:33N 47°41' W 003°27'4 4.5
2016-Jan-28 08:34N 47°44' W 003°22'0 0.0
2016-Jan-28 07:34N 47°44' W 003°22'  
Track history (hours):
 
Tides and Currents Weather Stations Pressure Air Temp Water Temp Dewpoint Dewpoint Depression Visibility Wind Speed Wind Dir Waves Ship Positions

F/V Carmalia

Last reported at 2016-Feb-06 16:33 UTC. Time now 2016-Feb-07 17:23 UTC.
Position N 47°44' W 003°22'.

Length 17 m.

Type: Fishing. MMSI: 228222900.

Date/timePositionNaut miles runAvg speedWind from/ knotsBaromVisibWave heightAir tempDewpointWater temp
2016-Feb-06 16:33N 47°44' W 003°22'0 0.0
2016-Feb-06 15:33N 47°44' W 003°22'0 0.0
2016-Feb-06 14:33N 47°44' W 003°22'3 2.8
2016-Feb-06 13:33N 47°41' W 003°24'9 8.5
2016-Feb-06 12:33N 47°40' W 003°36'5 0.1
2016-Feb-04 17:31N 47°39' W 003°43'9 9.3
2016-Feb-04 16:33N 47°40' W 003°30'7 6.5
2016-Feb-04 15:33N 47°44' W 003°22'0 0.0
2016-Feb-04 14:33N 47°44' W 003°22'0 0.0
2016-Feb-04 13:33N 47°44' W 003°22'3 2.6
2016-Feb-04 12:33N 47°41' W 003°23'7 7.0
2016-Feb-04 11:33N 47°40' W 003°33'7 6.7
2016-Feb-04 10:33N 47°39' W 003°43'  
2016-Feb-01 10:27N 47°43' W 003°48'7 7.8
2016-Feb-01 09:33N 47°42' W 003°37'8 7.7
2016-Feb-01 08:33N 47°41' W 003°26'4 3.9
2016-Feb-01 07:33N 47°44' W 003°22'  
2016-Jan-28 14:08N 47°44' W 003°22'0 0.0
2016-Jan-28 13:34N 47°44' W 003°22'5 4.6
2016-Jan-28 12:33N 47°41' W 003°27'9 9.3
2016-Jan-28 11:33N 47°40' W 003°41'1 0.6
2016-Jan-28 10:33N 47°40' W 003°42'10 9.9
2016-Jan-28 09:33N 47°41' W 003°27'4 4.5
2016-Jan-28 08:34N 47°44' W 003°22'0 0.0
2016-Jan-28 07:34N 47°44' W 003°22'  

Dump ship's entire track history